sensor_id;sensor_type;location;lat;lon;timestamp;P1;durP1;ratioP1;P2;durP2;ratioP2
6809;SDS011;3443;48.812;9.112;2024-03-02T00:01:14;10.25;;;7.38;;
6809;SDS011;3443;48.812;9.112;2024-03-02T00:03:40;15.70;;;8.77;;
6809;SDS011;3443;48.812;9.112;2024-03-02T00:06:08;8.43;;;7.35;;
6809;SDS011;3443;48.812;9.112;2024-03-02T00:08:34;9.27;;;6.90;;
6809;SDS011;3443;48.812;9.112;2024-03-02T00:11:00;9.35;;;7.25;;
6809;SDS011;3443;48.812;9.112;2024-03-02T00:13:27;13.68;;;8.18;;
6809;SDS011;3443;48.812;9.112;2024-03-02T00:15:56;11.68;;;7.65;;
6809;SDS011;3443;48.812;9.112;2024-03-02T00:18:25;7.45;;;6.75;;
6809;SDS011;3443;48.812;9.112;2024-03-02T00:20:55;6.65;;;6.00;;
6809;SDS011;3443;48.812;9.112;2024-03-02T00:23:22;17.95;;;9.88;;
6809;SDS011;3443;48.812;9.112;2024-03-02T00:33:16;9.60;;;7.35;;
6809;SDS011;3443;48.812;9.112;2024-03-02T00:35:44;10.52;;;8.07;;
6809;SDS011;3443;48.812;9.112;2024-03-02T00:38:10;10.50;;;7.90;;
6809;SDS011;3443;48.812;9.112;2024-03-02T00:40:35;7.30;;;6.60;;
6809;SDS011;3443;48.812;9.112;2024-03-02T00:43:01;19.13;;;10.45;;
6809;SDS011;3443;48.812;9.112;2024-03-02T00:45:28;9.30;;;7.93;;
6809;SDS011;3443;48.812;9.112;2024-03-02T00:47:54;8.18;;;7.03;;
6809;SDS011;3443;48.812;9.112;2024-03-02T00:50:20;8.25;;;6.80;;
6809;SDS011;3443;48.812;9.112;2024-03-02T00:52:46;7.97;;;6.72;;
6809;SDS011;3443;48.812;9.112;2024-03-02T00:55:15;7.22;;;6.25;;
6809;SDS011;3443;48.812;9.112;2024-03-02T00:57:41;6.85;;;6.20;;
6809;SDS011;3443;48.812;9.112;2024-03-02T01:00:07;20.77;;;9.85;;
6809;SDS011;3443;48.812;9.112;2024-03-02T01:02:35;8.90;;;7.13;;
6809;SDS011;3443;48.812;9.112;2024-03-02T01:05:01;7.95;;;7.15;;
6809;SDS011;3443;48.812;9.112;2024-03-02T01:07:26;8.20;;;7.10;;
6809;SDS011;3443;48.812;9.112;2024-03-02T01:09:52;8.30;;;6.95;;
6809;SDS011;3443;48.812;9.112;2024-03-02T01:12:17;11.07;;;8.48;;
6809;SDS011;3443;48.812;9.112;2024-03-02T01:14:43;9.00;;;7.15;;
6809;SDS011;3443;48.812;9.112;2024-03-02T01:17:08;8.43;;;6.82;;
6809;SDS011;3443;48.812;9.112;2024-03-02T01:19:34;7.97;;;6.85;;
6809;SDS011;3443;48.812;9.112;2024-03-02T01:21:59;8.35;;;7.07;;
6809;SDS011;3443;48.812;9.112;2024-03-02T01:24:25;13.90;;;9.13;;
6809;SDS011;3443;48.812;9.112;2024-03-02T01:26:50;11.23;;;8.18;;
6809;SDS011;3443;48.812;9.112;2024-03-02T01:29:16;8.38;;;6.95;;
6809;SDS011;3443;48.812;9.112;2024-03-02T01:31:42;9.00;;;7.45;;
6809;SDS011;3443;48.812;9.112;2024-03-02T01:34:07;7.18;;;6.45;;
6809;SDS011;3443;48.812;9.112;2024-03-02T01:36:33;7.30;;;6.65;;
6809;SDS011;3443;48.812;9.112;2024-03-02T01:38:59;6.13;;;5.55;;
6809;SDS011;3443;48.812;9.112;2024-03-02T01:41:25;6.97;;;6.20;;
6809;SDS011;3443;48.812;9.112;2024-03-02T01:43:50;6.95;;;6.35;;
6809;SDS011;3443;48.812;9.112;2024-03-02T01:46:16;7.50;;;6.53;;
6809;SDS011;3443;48.812;9.112;2024-03-02T01:48:42;7.68;;;6.88;;
6809;SDS011;3443;48.812;9.112;2024-03-02T01:51:07;7.72;;;6.30;;
6809;SDS011;3443;48.812;9.112;2024-03-02T01:53:34;6.93;;;6.22;;
6809;SDS011;3443;48.812;9.112;2024-03-02T01:56:00;8.00;;;5.93;;
6809;SDS011;3443;48.812;9.112;2024-03-02T01:58:26;7.78;;;6.97;;
6809;SDS011;3443;48.812;9.112;2024-03-02T02:00:52;9.85;;;8.07;;
6809;SDS011;3443;48.812;9.112;2024-03-02T02:03:18;7.18;;;6.50;;
6809;SDS011;3443;48.812;9.112;2024-03-02T02:05:43;8.00;;;6.55;;
6809;SDS011;3443;48.812;9.112;2024-03-02T02:08:09;9.38;;;7.53;;
6809;SDS011;3443;48.812;9.112;2024-03-02T02:10:35;8.73;;;7.82;;
6809;SDS011;3443;48.812;9.112;2024-03-02T02:13:01;9.43;;;7.95;;
6809;SDS011;3443;48.812;9.112;2024-03-02T02:15:28;8.95;;;8.05;;
6809;SDS011;3443;48.812;9.112;2024-03-02T02:17:55;8.98;;;8.07;;
6809;SDS011;3443;48.812;9.112;2024-03-02T02:20:21;9.05;;;8.15;;
6809;SDS011;3443;48.812;9.112;2024-03-02T02:22:56;20.00;;;10.77;;
6809;SDS011;3443;48.812;9.112;2024-03-02T02:25:22;15.45;;;10.18;;
6809;SDS011;3443;48.812;9.112;2024-03-02T02:27:48;15.07;;;9.23;;
6809;SDS011;3443;48.812;9.112;2024-03-02T02:30:13;10.35;;;8.50;;
6809;SDS011;3443;48.812;9.112;2024-03-02T02:32:43;11.48;;;9.48;;
6809;SDS011;3443;48.812;9.112;2024-03-02T02:35:08;14.00;;;8.88;;
6809;SDS011;3443;48.812;9.112;2024-03-02T02:37:34;11.73;;;8.93;;
6809;SDS011;3443;48.812;9.112;2024-03-02T02:39:59;8.57;;;7.68;;
6809;SDS011;3443;48.812;9.112;2024-03-02T02:42:25;10.70;;;7.75;;
6809;SDS011;3443;48.812;9.112;2024-03-02T02:44:51;9.20;;;8.30;;
6809;SDS011;3443;48.812;9.112;2024-03-02T02:47:16;9.13;;;7.95;;
6809;SDS011;3443;48.812;9.112;2024-03-02T02:49:42;11.32;;;7.95;;
6809;SDS011;3443;48.812;9.112;2024-03-02T02:52:07;11.02;;;8.98;;
6809;SDS011;3443;48.812;9.112;2024-03-02T02:54:33;9.63;;;8.52;;
6809;SDS011;3443;48.812;9.112;2024-03-02T02:56:58;9.18;;;8.10;;
6809;SDS011;3443;48.812;9.112;2024-03-02T02:59:24;10.13;;;8.73;;
6809;SDS011;3443;48.812;9.112;2024-03-02T03:01:51;8.60;;;7.70;;
6809;SDS011;3443;48.812;9.112;2024-03-02T03:04:16;10.48;;;8.18;;
6809;SDS011;3443;48.812;9.112;2024-03-02T03:06:42;8.75;;;7.85;;
6809;SDS011;3443;48.812;9.112;2024-03-02T03:09:08;10.25;;;8.18;;
6809;SDS011;3443;48.812;9.112;2024-03-02T03:11:36;10.10;;;8.80;;
6809;SDS011;3443;48.812;9.112;2024-03-02T03:14:01;10.13;;;9.02;;
6809;SDS011;3443;48.812;9.112;2024-03-02T03:16:28;11.75;;;9.05;;
6809;SDS011;3443;48.812;9.112;2024-03-02T03:18:53;10.50;;;9.40;;
6809;SDS011;3443;48.812;9.112;2024-03-02T03:21:19;15.65;;;11.98;;
6809;SDS011;3443;48.812;9.112;2024-03-02T03:23:44;13.63;;;10.15;;
6809;SDS011;3443;48.812;9.112;2024-03-02T03:26:10;17.05;;;12.02;;
6809;SDS011;3443;48.812;9.112;2024-03-02T03:28:36;22.65;;;13.75;;
6809;SDS011;3443;48.812;9.112;2024-03-02T03:31:01;27.58;;;15.48;;
6809;SDS011;3443;48.812;9.112;2024-03-02T03:33:27;20.95;;;12.80;;
6809;SDS011;3443;48.812;9.112;2024-03-02T03:35:52;12.90;;;10.27;;
6809;SDS011;3443;48.812;9.112;2024-03-02T03:38:18;11.93;;;10.10;;
6809;SDS011;3443;48.812;9.112;2024-03-02T03:40:44;12.38;;;10.48;;
6809;SDS011;3443;48.812;9.112;2024-03-02T03:43:10;15.70;;;10.75;;
6809;SDS011;3443;48.812;9.112;2024-03-02T03:45:35;13.18;;;10.32;;
6809;SDS011;3443;48.812;9.112;2024-03-02T03:48:02;12.00;;;9.27;;
6809;SDS011;3443;48.812;9.112;2024-03-02T03:50:27;10.93;;;9.65;;
6809;SDS011;3443;48.812;9.112;2024-03-02T03:52:53;10.00;;;8.95;;
6809;SDS011;3443;48.812;9.112;2024-03-02T03:55:19;10.95;;;9.75;;
6809;SDS011;3443;48.812;9.112;2024-03-02T03:57:44;11.25;;;9.65;;
6809;SDS011;3443;48.812;9.112;2024-03-02T04:00:10;9.57;;;8.57;;
6809;SDS011;3443;48.812;9.112;2024-03-02T04:02:37;11.10;;;8.88;;
6809;SDS011;3443;48.812;9.112;2024-03-02T04:05:03;10.52;;;8.38;;
6809;SDS011;3443;48.812;9.112;2024-03-02T04:07:33;10.48;;;8.70;;
6809;SDS011;3443;48.812;9.112;2024-03-02T04:10:05;10.52;;;9.07;;
6809;SDS011;3443;48.812;9.112;2024-03-02T04:12:33;11.32;;;9.43;;
6809;SDS011;3443;48.812;9.112;2024-03-02T04:14:59;10.95;;;8.73;;
6809;SDS011;3443;48.812;9.112;2024-03-02T04:17:26;12.23;;;9.48;;
6809;SDS011;3443;48.812;9.112;2024-03-02T04:19:52;15.18;;;10.32;;
6809;SDS011;3443;48.812;9.112;2024-03-02T04:22:17;20.20;;;12.48;;
6809;SDS011;3443;48.812;9.112;2024-03-02T04:24:43;18.88;;;12.27;;
6809;SDS011;3443;48.812;9.112;2024-03-02T04:27:08;14.43;;;10.95;;
6809;SDS011;3443;48.812;9.112;2024-03-02T04:29:34;16.63;;;10.90;;
6809;SDS011;3443;48.812;9.112;2024-03-02T04:32:00;18.45;;;11.25;;
6809;SDS011;3443;48.812;9.112;2024-03-02T04:34:25;19.33;;;12.20;;
6809;SDS011;3443;48.812;9.112;2024-03-02T04:36:51;16.45;;;10.82;;
6809;SDS011;3443;48.812;9.112;2024-03-02T04:39:16;10.32;;;8.98;;
6809;SDS011;3443;48.812;9.112;2024-03-02T04:41:42;10.52;;;8.77;;
6809;SDS011;3443;48.812;9.112;2024-03-02T04:44:07;17.02;;;10.50;;
6809;SDS011;3443;48.812;9.112;2024-03-02T04:46:33;13.45;;;9.60;;
6809;SDS011;3443;48.812;9.112;2024-03-02T04:48:58;11.82;;;9.38;;
6809;SDS011;3443;48.812;9.112;2024-03-02T04:51:24;10.82;;;9.07;;
6809;SDS011;3443;48.812;9.112;2024-03-02T04:53:49;11.48;;;8.77;;
6809;SDS011;3443;48.812;9.112;2024-03-02T04:56:15;13.48;;;10.20;;
6809;SDS011;3443;48.812;9.112;2024-03-02T04:58:47;13.13;;;10.35;;
6809;SDS011;3443;48.812;9.112;2024-03-02T05:01:13;11.10;;;8.77;;
6809;SDS011;3443;48.812;9.112;2024-03-02T05:03:38;11.48;;;9.52;;
6809;SDS011;3443;48.812;9.112;2024-03-02T05:06:04;10.85;;;8.85;;
6809;SDS011;3443;48.812;9.112;2024-03-02T05:08:29;9.68;;;8.48;;
6809;SDS011;3443;48.812;9.112;2024-03-02T05:10:55;9.65;;;8.55;;
6809;SDS011;3443;48.812;9.112;2024-03-02T05:13:40;10.68;;;8.82;;
6809;SDS011;3443;48.812;9.112;2024-03-02T05:16:06;13.15;;;8.70;;
6809;SDS011;3443;48.812;9.112;2024-03-02T05:18:31;16.77;;;11.38;;
6809;SDS011;3443;48.812;9.112;2024-03-02T05:20:57;16.08;;;11.43;;
6809;SDS011;3443;48.812;9.112;2024-03-02T05:23:22;13.80;;;10.10;;
6809;SDS011;3443;48.812;9.112;2024-03-02T05:25:49;12.07;;;9.30;;
6809;SDS011;3443;48.812;9.112;2024-03-02T05:28:15;11.57;;;9.40;;
6809;SDS011;3443;48.812;9.112;2024-03-02T05:30:42;11.88;;;9.82;;
6809;SDS011;3443;48.812;9.112;2024-03-02T05:33:07;11.98;;;9.52;;
6809;SDS011;3443;48.812;9.112;2024-03-02T05:35:33;13.90;;;9.88;;
6809;SDS011;3443;48.812;9.112;2024-03-02T05:37:58;10.07;;;8.85;;
6809;SDS011;3443;48.812;9.112;2024-03-02T05:40:24;13.10;;;10.00;;
6809;SDS011;3443;48.812;9.112;2024-03-02T05:42:49;10.32;;;9.00;;
6809;SDS011;3443;48.812;9.112;2024-03-02T05:45:15;9.68;;;8.73;;
6809;SDS011;3443;48.812;9.112;2024-03-02T05:47:41;10.43;;;8.63;;
6809;SDS011;3443;48.812;9.112;2024-03-02T05:50:07;10.65;;;8.65;;
6809;SDS011;3443;48.812;9.112;2024-03-02T05:52:33;10.10;;;8.25;;
6809;SDS011;3443;48.812;9.112;2024-03-02T05:54:58;9.50;;;8.50;;
6809;SDS011;3443;48.812;9.112;2024-03-02T05:57:24;8.10;;;6.95;;
6809;SDS011;3443;48.812;9.112;2024-03-02T06:00:12;8.50;;;7.70;;
6809;SDS011;3443;48.812;9.112;2024-03-02T06:02:41;7.80;;;7.00;;
6809;SDS011;3443;48.812;9.112;2024-03-02T06:05:06;10.30;;;8.27;;
6809;SDS011;3443;48.812;9.112;2024-03-02T06:07:32;12.70;;;9.75;;
6809;SDS011;3443;48.812;9.112;2024-03-02T06:09:58;13.32;;;10.68;;
6809;SDS011;3443;48.812;9.112;2024-03-02T06:12:24;15.00;;;10.25;;
6809;SDS011;3443;48.812;9.112;2024-03-02T06:14:49;9.32;;;8.30;;
6809;SDS011;3443;48.812;9.112;2024-03-02T06:17:15;8.93;;;8.02;;
6809;SDS011;3443;48.812;9.112;2024-03-02T06:19:40;10.18;;;7.95;;
6809;SDS011;3443;48.812;9.112;2024-03-02T06:22:06;10.73;;;8.10;;
6809;SDS011;3443;48.812;9.112;2024-03-02T06:24:35;8.57;;;7.65;;
6809;SDS011;3443;48.812;9.112;2024-03-02T06:27:01;8.65;;;7.38;;
6809;SDS011;3443;48.812;9.112;2024-03-02T06:29:27;9.40;;;7.65;;
6809;SDS011;3443;48.812;9.112;2024-03-02T06:31:52;9.23;;;7.43;;
6809;SDS011;3443;48.812;9.112;2024-03-02T06:34:18;8.75;;;7.78;;
6809;SDS011;3443;48.812;9.112;2024-03-02T06:36:43;9.45;;;7.30;;
6809;SDS011;3443;48.812;9.112;2024-03-02T06:39:09;8.65;;;7.40;;
6809;SDS011;3443;48.812;9.112;2024-03-02T06:41:35;8.82;;;7.07;;
6809;SDS011;3443;48.812;9.112;2024-03-02T06:44:00;7.35;;;6.57;;
6809;SDS011;3443;48.812;9.112;2024-03-02T06:46:26;7.53;;;6.75;;
6809;SDS011;3443;48.812;9.112;2024-03-02T06:48:51;7.45;;;6.72;;
6809;SDS011;3443;48.812;9.112;2024-03-02T06:51:17;9.50;;;7.20;;
6809;SDS011;3443;48.812;9.112;2024-03-02T06:53:42;7.93;;;7.13;;
6809;SDS011;3443;48.812;9.112;2024-03-02T06:56:08;8.38;;;7.50;;
6809;SDS011;3443;48.812;9.112;2024-03-02T06:58:34;9.07;;;7.70;;
6809;SDS011;3443;48.812;9.112;2024-03-02T07:00:59;10.32;;;8.38;;
6809;SDS011;3443;48.812;9.112;2024-03-02T07:03:28;10.40;;;8.75;;
6809;SDS011;3443;48.812;9.112;2024-03-02T07:05:53;8.90;;;8.00;;
6809;SDS011;3443;48.812;9.112;2024-03-02T07:08:19;9.18;;;7.75;;
6809;SDS011;3443;48.812;9.112;2024-03-02T07:10:44;10.82;;;7.82;;
6809;SDS011;3443;48.812;9.112;2024-03-02T07:13:11;10.88;;;8.45;;
6809;SDS011;3443;48.812;9.112;2024-03-02T07:15:38;9.65;;;7.38;;
6809;SDS011;3443;48.812;9.112;2024-03-02T07:18:22;12.40;;;8.70;;
6809;SDS011;3443;48.812;9.112;2024-03-02T07:20:47;10.20;;;8.35;;
6809;SDS011;3443;48.812;9.112;2024-03-02T07:23:14;10.68;;;7.80;;
6809;SDS011;3443;48.812;9.112;2024-03-02T07:25:40;8.07;;;7.28;;
6809;SDS011;3443;48.812;9.112;2024-03-02T07:28:05;7.82;;;6.95;;
6809;SDS011;3443;48.812;9.112;2024-03-02T07:30:32;7.18;;;6.47;;
6809;SDS011;3443;48.812;9.112;2024-03-02T07:32:58;7.15;;;6.13;;
6809;SDS011;3443;48.812;9.112;2024-03-02T07:35:24;5.80;;;5.30;;
6809;SDS011;3443;48.812;9.112;2024-03-02T07:37:52;5.70;;;5.20;;
6809;SDS011;3443;48.812;9.112;2024-03-02T07:40:18;5.82;;;5.30;;
6809;SDS011;3443;48.812;9.112;2024-03-02T07:42:44;5.63;;;5.13;;
6809;SDS011;3443;48.812;9.112;2024-03-02T07:45:10;7.15;;;5.30;;
6809;SDS011;3443;48.812;9.112;2024-03-02T07:47:36;4.97;;;4.57;;
6809;SDS011;3443;48.812;9.112;2024-03-02T07:50:02;5.03;;;4.63;;
6809;SDS011;3443;48.812;9.112;2024-03-02T07:52:27;5.30;;;4.80;;
6809;SDS011;3443;48.812;9.112;2024-03-02T07:54:53;7.53;;;5.20;;
6809;SDS011;3443;48.812;9.112;2024-03-02T07:57:20;8.73;;;5.47;;
6809;SDS011;3443;48.812;9.112;2024-03-02T07:59:45;5.85;;;5.35;;
6809;SDS011;3443;48.812;9.112;2024-03-02T08:02:12;5.25;;;4.80;;
6809;SDS011;3443;48.812;9.112;2024-03-02T08:04:37;5.82;;;5.32;;
6809;SDS011;3443;48.812;9.112;2024-03-02T08:07:04;5.63;;;5.00;;
6809;SDS011;3443;48.812;9.112;2024-03-02T08:09:29;5.47;;;4.75;;
6809;SDS011;3443;48.812;9.112;2024-03-02T08:11:55;7.90;;;5.40;;
6809;SDS011;3443;48.812;9.112;2024-03-02T08:14:22;6.25;;;5.22;;
6809;SDS011;3443;48.812;9.112;2024-03-02T08:16:48;5.85;;;5.00;;
6809;SDS011;3443;48.812;9.112;2024-03-02T08:19:14;5.38;;;4.95;;
6809;SDS011;3443;48.812;9.112;2024-03-02T08:21:39;5.32;;;4.82;;
6809;SDS011;3443;48.812;9.112;2024-03-02T08:24:05;6.05;;;4.85;;
6809;SDS011;3443;48.812;9.112;2024-03-02T08:26:31;5.13;;;4.72;;
6809;SDS011;3443;48.812;9.112;2024-03-02T08:28:57;4.68;;;4.28;;
6809;SDS011;3443;48.812;9.112;2024-03-02T08:31:24;5.70;;;4.65;;
6809;SDS011;3443;48.812;9.112;2024-03-02T08:33:49;4.80;;;4.40;;
6809;SDS011;3443;48.812;9.112;2024-03-02T08:36:15;5.93;;;4.45;;
6809;SDS011;3443;48.812;9.112;2024-03-02T08:38:40;4.97;;;4.53;;
6809;SDS011;3443;48.812;9.112;2024-03-02T08:41:06;6.55;;;4.90;;
6809;SDS011;3443;48.812;9.112;2024-03-02T08:43:32;4.50;;;4.00;;
6809;SDS011;3443;48.812;9.112;2024-03-02T08:45:58;4.13;;;3.72;;
6809;SDS011;3443;48.812;9.112;2024-03-02T08:48:24;3.53;;;3.33;;
6809;SDS011;3443;48.812;9.112;2024-03-02T08:50:49;4.10;;;3.70;;
6809;SDS011;3443;48.812;9.112;2024-03-02T08:53:15;4.18;;;3.88;;
6809;SDS011;3443;48.812;9.112;2024-03-02T08:55:43;3.95;;;3.28;;
6809;SDS011;3443;48.812;9.112;2024-03-02T08:58:10;3.70;;;3.40;;
6809;SDS011;3443;48.812;9.112;2024-03-02T09:00:36;3.90;;;3.40;;
6809;SDS011;3443;48.812;9.112;2024-03-02T09:03:01;4.70;;;3.30;;
6809;SDS011;3443;48.812;9.112;2024-03-02T09:05:28;3.83;;;3.00;;
6809;SDS011;3443;48.812;9.112;2024-03-02T09:07:53;3.72;;;3.40;;
6809;SDS011;3443;48.812;9.112;2024-03-02T09:10:19;3.15;;;2.78;;
6809;SDS011;3443;48.812;9.112;2024-03-02T09:12:45;4.10;;;3.53;;
6809;SDS011;3443;48.812;9.112;2024-03-02T09:15:10;2.90;;;2.75;;
6809;SDS011;3443;48.812;9.112;2024-03-02T09:17:36;3.00;;;2.80;;
6809;SDS011;3443;48.812;9.112;2024-03-02T09:20:01;2.65;;;2.53;;
6809;SDS011;3443;48.812;9.112;2024-03-02T09:22:29;2.83;;;2.70;;
6809;SDS011;3443;48.812;9.112;2024-03-02T09:24:55;2.42;;;2.33;;
6809;SDS011;3443;48.812;9.112;2024-03-02T09:27:20;2.65;;;2.45;;
6809;SDS011;3443;48.812;9.112;2024-03-02T09:29:47;2.70;;;2.60;;
6809;SDS011;3443;48.812;9.112;2024-03-02T09:32:13;2.33;;;2.22;;
6809;SDS011;3443;48.812;9.112;2024-03-02T09:34:39;1.98;;;1.95;;
6809;SDS011;3443;48.812;9.112;2024-03-02T09:37:05;2.30;;;2.20;;
6809;SDS011;3443;48.812;9.112;2024-03-02T09:39:31;2.35;;;2.17;;
6809;SDS011;3443;48.812;9.112;2024-03-02T09:41:57;2.15;;;2.05;;
6809;SDS011;3443;48.812;9.112;2024-03-02T09:44:23;2.30;;;2.20;;
6809;SDS011;3443;48.812;9.112;2024-03-02T09:46:50;2.10;;;2.05;;
6809;SDS011;3443;48.812;9.112;2024-03-02T09:49:16;1.95;;;1.85;;
6809;SDS011;3443;48.812;9.112;2024-03-02T09:51:46;2.25;;;2.08;;
6809;SDS011;3443;48.812;9.112;2024-03-02T09:54:13;2.08;;;1.80;;
6809;SDS011;3443;48.812;9.112;2024-03-02T09:56:40;2.42;;;2.22;;
6809;SDS011;3443;48.812;9.112;2024-03-02T09:59:05;2.13;;;2.13;;
6809;SDS011;3443;48.812;9.112;2024-03-02T10:01:31;2.00;;;1.90;;
6809;SDS011;3443;48.812;9.112;2024-03-02T10:03:58;2.00;;;1.90;;
6809;SDS011;3443;48.812;9.112;2024-03-02T10:06:25;1.92;;;1.83;;
6809;SDS011;3443;48.812;9.112;2024-03-02T10:08:52;1.67;;;1.50;;
6809;SDS011;3443;48.812;9.112;2024-03-02T10:14:09;1.70;;;1.60;;
6809;SDS011;3443;48.812;9.112;2024-03-02T10:16:39;1.70;;;1.60;;
6809;SDS011;3443;48.812;9.112;2024-03-02T10:19:28;1.63;;;1.55;;
6809;SDS011;3443;48.812;9.112;2024-03-02T10:21:53;2.17;;;1.67;;
6809;SDS011;3443;48.812;9.112;2024-03-02T10:24:19;2.30;;;2.10;;
6809;SDS011;3443;48.812;9.112;2024-03-02T10:26:46;1.70;;;1.60;;
6809;SDS011;3443;48.812;9.112;2024-03-02T10:29:12;1.40;;;1.40;;
6809;SDS011;3443;48.812;9.112;2024-03-02T10:31:38;1.17;;;1.17;;
6809;SDS011;3443;48.812;9.112;2024-03-02T10:34:05;1.30;;;1.20;;
6809;SDS011;3443;48.812;9.112;2024-03-02T10:36:32;1.20;;;1.20;;
6809;SDS011;3443;48.812;9.112;2024-03-02T10:39:01;3.78;;;1.40;;
6809;SDS011;3443;48.812;9.112;2024-03-02T10:41:33;1.88;;;1.77;;
6809;SDS011;3443;48.812;9.112;2024-03-02T10:44:03;1.88;;;1.30;;
6809;SDS011;3443;48.812;9.112;2024-03-02T10:46:31;1.70;;;1.50;;
6809;SDS011;3443;48.812;9.112;2024-03-02T10:49:02;1.42;;;1.23;;
6809;SDS011;3443;48.812;9.112;2024-03-02T10:51:30;1.75;;;1.17;;
6809;SDS011;3443;48.812;9.112;2024-03-02T10:53:57;0.90;;;0.90;;
6809;SDS011;3443;48.812;9.112;2024-03-02T10:56:33;1.25;;;1.25;;
6809;SDS011;3443;48.812;9.112;2024-03-02T10:59:03;1.65;;;1.65;;
6809;SDS011;3443;48.812;9.112;2024-03-02T11:01:32;2.13;;;1.80;;
6809;SDS011;3443;48.812;9.112;2024-03-02T11:03:58;2.03;;;1.95;;
6809;SDS011;3443;48.812;9.112;2024-03-02T11:06:26;1.73;;;1.73;;
6809;SDS011;3443;48.812;9.112;2024-03-02T11:08:53;2.00;;;1.90;;
6809;SDS011;3443;48.812;9.112;2024-03-02T11:11:27;2.13;;;1.98;;
6809;SDS011;3443;48.812;9.112;2024-03-02T11:13:55;1.67;;;1.67;;
6809;SDS011;3443;48.812;9.112;2024-03-02T11:16:33;1.70;;;1.67;;
6809;SDS011;3443;48.812;9.112;2024-03-02T11:19:04;2.00;;;1.33;;
6809;SDS011;3443;48.812;9.112;2024-03-02T11:21:35;1.17;;;1.17;;
6809;SDS011;3443;48.812;9.112;2024-03-02T11:26:46;1.60;;;1.60;;
6809;SDS011;3443;48.812;9.112;2024-03-02T11:32:00;2.08;;;2.00;;
6809;SDS011;3443;48.812;9.112;2024-03-02T11:34:30;2.20;;;2.00;;
6809;SDS011;3443;48.812;9.112;2024-03-02T11:36:56;2.22;;;2.10;;
6809;SDS011;3443;48.812;9.112;2024-03-02T11:39:24;1.70;;;1.70;;
6809;SDS011;3443;48.812;9.112;2024-03-02T11:41:51;1.27;;;1.27;;
6809;SDS011;3443;48.812;9.112;2024-03-02T11:44:16;1.63;;;1.52;;
6809;SDS011;3443;48.812;9.112;2024-03-02T11:46:44;1.77;;;1.45;;
6809;SDS011;3443;48.812;9.112;2024-03-02T11:49:15;0.80;;;0.80;;
6809;SDS011;3443;48.812;9.112;2024-03-02T11:51:54;0.90;;;0.90;;
6809;SDS011;3443;48.812;9.112;2024-03-02T11:54:26;1.30;;;1.20;;
6809;SDS011;3443;48.812;9.112;2024-03-02T11:56:56;1.05;;;1.05;;
6809;SDS011;3443;48.812;9.112;2024-03-02T11:59:24;0.73;;;0.73;;
6809;SDS011;3443;48.812;9.112;2024-03-02T12:01:51;0.50;;;0.50;;
6809;SDS011;3443;48.812;9.112;2024-03-02T12:04:17;0.60;;;0.60;;
6809;SDS011;3443;48.812;9.112;2024-03-02T12:06:43;0.40;;;0.40;;
6809;SDS011;3443;48.812;9.112;2024-03-02T12:09:09;0.43;;;0.43;;
6809;SDS011;3443;48.812;9.112;2024-03-02T12:11:39;1.45;;;0.70;;
6809;SDS011;3443;48.812;9.112;2024-03-02T12:14:10;1.02;;;0.95;;
6809;SDS011;3443;48.812;9.112;2024-03-02T12:16:37;0.30;;;0.30;;
6809;SDS011;3443;48.812;9.112;2024-03-02T12:19:04;0.80;;;0.43;;
6809;SDS011;3443;48.812;9.112;2024-03-02T12:21:30;0.30;;;0.30;;
6809;SDS011;3443;48.812;9.112;2024-03-02T12:23:56;0.30;;;0.30;;
6809;SDS011;3443;48.812;9.112;2024-03-02T12:26:22;0.25;;;0.25;;
6809;SDS011;3443;48.812;9.112;2024-03-02T12:28:48;0.30;;;0.30;;
6809;SDS011;3443;48.812;9.112;2024-03-02T12:31:14;0.40;;;0.20;;
6809;SDS011;3443;48.812;9.112;2024-03-02T12:33:40;0.20;;;0.20;;
6809;SDS011;3443;48.812;9.112;2024-03-02T12:36:09;0.20;;;0.20;;
6809;SDS011;3443;48.812;9.112;2024-03-02T12:38:37;1.23;;;0.30;;
6809;SDS011;3443;48.812;9.112;2024-03-02T12:41:02;0.75;;;0.20;;
6809;SDS011;3443;48.812;9.112;2024-03-02T12:43:30;0.43;;;0.20;;
6809;SDS011;3443;48.812;9.112;2024-03-02T12:45:59;0.22;;;0.22;;
6809;SDS011;3443;48.812;9.112;2024-03-02T12:48:25;0.40;;;0.30;;
6809;SDS011;3443;48.812;9.112;2024-03-02T12:50:51;0.20;;;0.20;;
6809;SDS011;3443;48.812;9.112;2024-03-02T12:53:16;0.95;;;0.40;;
6809;SDS011;3443;48.812;9.112;2024-03-02T12:55:42;0.30;;;0.30;;
6809;SDS011;3443;48.812;9.112;2024-03-02T12:58:16;0.30;;;0.30;;
6809;SDS011;3443;48.812;9.112;2024-03-02T13:00:43;1.95;;;0.30;;
6809;SDS011;3443;48.812;9.112;2024-03-02T13:03:08;0.40;;;0.35;;
6809;SDS011;3443;48.812;9.112;2024-03-02T13:05:34;0.38;;;0.38;;
6809;SDS011;3443;48.812;9.112;2024-03-02T13:08:00;1.75;;;0.30;;
6809;SDS011;3443;48.812;9.112;2024-03-02T13:10:28;1.25;;;0.63;;
6809;SDS011;3443;48.812;9.112;2024-03-02T13:12:54;0.63;;;0.40;;
6809;SDS011;3443;48.812;9.112;2024-03-02T13:15:21;0.30;;;0.30;;
6809;SDS011;3443;48.812;9.112;2024-03-02T13:17:46;0.63;;;0.52;;
6809;SDS011;3443;48.812;9.112;2024-03-02T13:20:12;0.73;;;0.40;;
6809;SDS011;3443;48.812;9.112;2024-03-02T13:22:39;0.43;;;0.43;;
6809;SDS011;3443;48.812;9.112;2024-03-02T13:25:05;0.55;;;0.55;;
6809;SDS011;3443;48.812;9.112;2024-03-02T13:27:33;1.10;;;0.50;;
6809;SDS011;3443;48.812;9.112;2024-03-02T13:29:59;0.57;;;0.57;;
6809;SDS011;3443;48.812;9.112;2024-03-02T13:32:26;0.65;;;0.65;;
6809;SDS011;3443;48.812;9.112;2024-03-02T13:34:52;1.20;;;0.60;;
6809;SDS011;3443;48.812;9.112;2024-03-02T13:37:17;0.50;;;0.50;;
6809;SDS011;3443;48.812;9.112;2024-03-02T13:39:43;0.60;;;0.60;;
6809;SDS011;3443;48.812;9.112;2024-03-02T13:42:09;0.40;;;0.40;;
6809;SDS011;3443;48.812;9.112;2024-03-02T13:44:36;0.60;;;0.60;;
6809;SDS011;3443;48.812;9.112;2024-03-02T13:47:02;0.55;;;0.55;;
6809;SDS011;3443;48.812;9.112;2024-03-02T13:49:28;0.55;;;0.55;;
6809;SDS011;3443;48.812;9.112;2024-03-02T13:51:58;0.77;;;0.77;;
6809;SDS011;3443;48.812;9.112;2024-03-02T13:54:25;0.73;;;0.73;;
6809;SDS011;3443;48.812;9.112;2024-03-02T13:56:51;0.90;;;0.68;;
6809;SDS011;3443;48.812;9.112;2024-03-02T13:59:17;1.48;;;0.70;;
6809;SDS011;3443;48.812;9.112;2024-03-02T14:01:43;0.65;;;0.65;;
6809;SDS011;3443;48.812;9.112;2024-03-02T14:04:09;0.68;;;0.68;;
6809;SDS011;3443;48.812;9.112;2024-03-02T14:06:35;0.70;;;0.70;;
6809;SDS011;3443;48.812;9.112;2024-03-02T14:09:00;0.70;;;0.70;;
6809;SDS011;3443;48.812;9.112;2024-03-02T14:11:26;1.15;;;0.57;;
6809;SDS011;3443;48.812;9.112;2024-03-02T14:13:52;0.60;;;0.60;;
6809;SDS011;3443;48.812;9.112;2024-03-02T14:16:19;0.70;;;0.70;;
6809;SDS011;3443;48.812;9.112;2024-03-02T14:18:45;0.82;;;0.82;;
6809;SDS011;3443;48.812;9.112;2024-03-02T14:21:11;1.75;;;0.90;;
6809;SDS011;3443;48.812;9.112;2024-03-02T14:23:37;3.30;;;0.60;;
6809;SDS011;3443;48.812;9.112;2024-03-02T14:26:02;0.70;;;0.70;;
6809;SDS011;3443;48.812;9.112;2024-03-02T14:28:28;0.77;;;0.77;;
6809;SDS011;3443;48.812;9.112;2024-03-02T14:30:54;0.50;;;0.50;;
6809;SDS011;3443;48.812;9.112;2024-03-02T14:33:19;0.60;;;0.60;;
6809;SDS011;3443;48.812;9.112;2024-03-02T14:35:45;0.50;;;0.50;;
6809;SDS011;3443;48.812;9.112;2024-03-02T14:38:11;0.85;;;0.55;;
6809;SDS011;3443;48.812;9.112;2024-03-02T14:40:37;0.50;;;0.50;;
6809;SDS011;3443;48.812;9.112;2024-03-02T14:43:03;0.82;;;0.60;;
6809;SDS011;3443;48.812;9.112;2024-03-02T14:45:29;0.50;;;0.50;;
6809;SDS011;3443;48.812;9.112;2024-03-02T14:47:54;0.47;;;0.40;;
6809;SDS011;3443;48.812;9.112;2024-03-02T14:50:20;1.02;;;0.50;;
6809;SDS011;3443;48.812;9.112;2024-03-02T14:52:46;0.63;;;0.60;;
6809;SDS011;3443;48.812;9.112;2024-03-02T14:55:12;1.08;;;0.60;;
6809;SDS011;3443;48.812;9.112;2024-03-02T14:57:37;0.50;;;0.50;;
6809;SDS011;3443;48.812;9.112;2024-03-02T15:00:03;0.60;;;0.60;;
6809;SDS011;3443;48.812;9.112;2024-03-02T15:02:32;0.60;;;0.60;;
6809;SDS011;3443;48.812;9.112;2024-03-02T15:04:58;0.32;;;0.32;;
6809;SDS011;3443;48.812;9.112;2024-03-02T15:07:24;0.30;;;0.30;;
6809;SDS011;3443;48.812;9.112;2024-03-02T15:09:50;0.45;;;0.45;;
6809;SDS011;3443;48.812;9.112;2024-03-02T15:12:15;0.38;;;0.38;;
6809;SDS011;3443;48.812;9.112;2024-03-02T15:14:42;0.40;;;0.40;;
6809;SDS011;3443;48.812;9.112;2024-03-02T15:17:13;0.50;;;0.50;;
6809;SDS011;3443;48.812;9.112;2024-03-02T15:19:43;0.82;;;0.57;;
6809;SDS011;3443;48.812;9.112;2024-03-02T15:22:09;1.67;;;0.40;;